Time;durP1;ratioP1;P1;durP2;ratioP2;P2;SDS_P1;SDS_P2;PMS_P1;PMS_P2;Temp;Humidity;BMP_temperature;BMP_pressure;BME280_temperature;BME280_humidity;BME280_pressure;Samples;Min_cycle;Max_cycle;Signal;HPM_P1;HPM_P2
2023/05/16 00:00:53;;;;;;;0.00;0.00;;;13.10;99.90;;;;;;5073737;28;20527;-57
2023/05/16 00:03:19;;;;;;;0.00;0.00;;;13.10;99.90;;;;;;5073435;28;20656;-57
2023/05/16 00:05:45;;;;;;;0.20;0.20;;;13.10;99.90;;;;;;5073823;28;20208;-57
2023/05/16 00:08:11;;;;;;;0.00;0.00;;;13.10;99.90;;;;;;5073461;28;20165;-57
2023/05/16 00:10:36;;;;;;;0.00;0.00;;;13.10;99.90;;;;;;5073594;28;20485;-57
2023/05/16 00:13:02;;;;;;;0.20;0.20;;;13.00;99.90;;;;;;5073371;28;20172;-57
2023/05/16 00:15:28;;;;;;;0.00;0.00;;;13.00;99.90;;;;;;5073696;28;20260;-57
2023/05/16 00:17:57;;;;;;;0.20;0.20;;;13.00;99.90;;;;;;5073498;28;20177;-57
2023/05/16 00:20:23;;;;;;;0.03;0.03;;;13.00;99.90;;;;;;5073377;28;20500;-57
2023/05/16 00:22:49;;;;;;;0.38;0.13;;;13.00;99.90;;;;;;5085603;28;20306;-57
2023/05/16 00:25:15;;;;;;;0.00;0.00;;;13.00;99.90;;;;;;5093389;28;20277;-57
2023/05/16 00:27:40;;;;;;;0.05;0.05;;;12.90;99.90;;;;;;5093374;28;20180;-57
2023/05/16 00:30:07;;;;;;;0.03;0.03;;;12.90;99.90;;;;;;5092985;28;20227;-57
2023/05/16 00:32:32;;;;;;;0.00;0.00;;;12.90;99.90;;;;;;5093190;28;20259;-57
2023/05/16 00:34:58;;;;;;;0.10;0.10;;;12.80;99.90;;;;;;5092407;28;20260;-57
2023/05/16 00:37:23;;;;;;;0.10;0.10;;;12.70;99.90;;;;;;5093048;28;20234;-57
2023/05/16 00:39:49;;;;;;;0.00;0.00;;;12.70;99.90;;;;;;5093240;28;20540;-58
2023/05/16 00:42:14;;;;;;;0.05;0.05;;;12.60;99.90;;;;;;5092448;28;20176;-57
2023/05/16 00:44:40;;;;;;;0.00;0.00;;;12.60;99.90;;;;;;5093002;28;20180;-57
2023/05/16 00:47:06;;;;;;;0.00;0.00;;;12.60;99.90;;;;;;5092871;28;20225;-57
2023/05/16 00:49:31;;;;;;;0.10;0.10;;;12.60;99.90;;;;;;5093154;28;20176;-57
2023/05/16 00:51:57;;;;;;;0.08;0.08;;;12.50;99.90;;;;;;5099286;28;20189;-57
2023/05/16 00:54:27;;;;;;;0.00;0.00;;;12.50;99.90;;;;;;5090613;28;20188;-57
2023/05/16 00:56:53;;;;;;;1.95;0.20;;;12.50;99.90;;;;;;5091877;28;20195;-58
2023/05/16 00:59:19;;;;;;;0.50;0.50;;;12.50;99.90;;;;;;5072601;28;20196;-57
2023/05/16 01:01:46;;;;;;;0.10;0.10;;;12.60;99.90;;;;;;5085136;28;20434;-58
2023/05/16 01:04:12;;;;;;;0.00;0.00;;;12.60;99.90;;;;;;5092449;28;20204;-57
2023/05/16 01:06:38;;;;;;;0.00;0.00;;;12.60;99.90;;;;;;5092525;28;20246;-57
2023/05/16 01:09:05;;;;;;;0.50;0.50;;;12.70;99.90;;;;;;5091712;28;20217;-57
2023/05/16 01:11:41;;;;;;;0.57;0.57;;;12.70;99.90;;;;;;5091828;28;20180;-57
2023/05/16 01:14:15;;;;;;;0.10;0.10;;;12.80;99.90;;;;;;5090211;28;20172;-57
2023/05/16 01:17:12;;;;;;;0.00;0.00;;;12.80;99.90;;;;;;5092107;28;20181;-57
2023/05/16 01:19:46;;;;;;;0.10;0.10;;;12.80;99.90;;;;;;5092061;28;20174;-57
2023/05/16 01:22:26;;;;;;;0.10;0.10;;;12.70;99.90;;;;;;5092196;28;20597;-57
2023/05/16 01:24:54;;;;;;;0.25;0.25;;;12.70;99.90;;;;;;5092081;28;20558;-58
2023/05/16 01:27:22;;;;;;;1.00;0.40;;;12.70;99.90;;;;;;5091566;28;20274;-57
2023/05/16 01:29:47;;;;;;;0.10;0.10;;;12.70;99.90;;;;;;5091412;28;20219;-57
2023/05/16 01:32:13;;;;;;;0.08;0.08;;;12.70;99.90;;;;;;5090367;28;20208;-57
2023/05/16 01:34:38;;;;;;;0.00;0.00;;;12.70;99.90;;;;;;5091939;28;20180;-57
2023/05/16 01:37:11;;;;;;;0.00;0.00;;;12.70;99.90;;;;;;5090064;28;20187;-57
2023/05/16 01:39:44;;;;;;;0.00;0.00;;;12.60;99.90;;;;;;5091809;28;20637;-57
2023/05/16 01:42:13;;;;;;;0.00;0.00;;;12.60;99.90;;;;;;5088278;28;20191;-57
2023/05/16 01:45:02;;;;;;;0.00;0.00;;;12.60;99.90;;;;;;5090334;28;20188;-57
2023/05/16 01:47:31;;;;;;;0.00;0.00;;;12.60;99.90;;;;;;5090416;28;20203;-57
2023/05/16 01:50:16;;;;;;;1.08;0.52;;;12.50;99.90;;;;;;5091495;28;20195;-57
2023/05/16 01:53:07;;;;;;;0.25;0.25;;;12.50;99.90;;;;;;5090518;28;20168;-57
2023/05/16 01:55:38;;;;;;;0.10;0.10;;;12.50;99.90;;;;;;5084977;28;20590;-57
2023/05/16 01:58:06;;;;;;;0.00;0.00;;;12.50;99.90;;;;;;5090818;28;20276;-57
2023/05/16 02:00:32;;;;;;;0.20;0.20;;;12.40;99.90;;;;;;5090295;28;20718;-57
2023/05/16 02:02:57;;;;;;;0.10;0.10;;;12.40;99.90;;;;;;5091118;28;20231;-57
2023/05/16 02:05:23;;;;;;;0.25;0.25;;;12.40;99.90;;;;;;5091660;28;20191;-57
2023/05/16 02:07:49;;;;;;;0.00;0.00;;;12.40;99.90;;;;;;5091329;28;20194;-57
2023/05/16 02:10:14;;;;;;;0.00;0.00;;;12.40;99.90;;;;;;5090982;28;20537;-57
2023/05/16 02:12:40;;;;;;;0.08;0.08;;;12.40;99.90;;;;;;5090912;28;20173;-57
2023/05/16 02:15:06;;;;;;;0.60;0.60;;;12.50;99.90;;;;;;5091301;28;20165;-57
2023/05/16 02:17:32;;;;;;;0.10;0.10;;;12.40;99.90;;;;;;5090364;28;20280;-57
2023/05/16 02:19:57;;;;;;;0.08;0.08;;;12.40;99.90;;;;;;5090819;28;20248;-57
2023/05/16 02:22:23;;;;;;;0.00;0.00;;;12.40;99.90;;;;;;5089589;28;20560;-57
2023/05/16 02:24:48;;;;;;;0.13;0.13;;;12.40;99.90;;;;;;5090427;28;20357;-58
2023/05/16 02:27:14;;;;;;;0.32;0.32;;;12.30;99.90;;;;;;5089917;28;20172;-57
2023/05/16 02:29:39;;;;;;;0.00;0.00;;;12.30;99.90;;;;;;5091154;28;20192;-57
2023/05/16 02:32:05;;;;;;;0.00;0.00;;;12.30;99.90;;;;;;5089909;28;20176;-58
2023/05/16 02:34:31;;;;;;;0.10;0.10;;;12.30;99.90;;;;;;5089940;28;20176;-57
2023/05/16 02:36:56;;;;;;;0.03;0.03;;;12.30;99.90;;;;;;5090121;28;20188;-57
2023/05/16 02:39:22;;;;;;;0.00;0.00;;;12.30;99.90;;;;;;5090328;28;20176;-58
2023/05/16 02:41:47;;;;;;;0.30;0.30;;;12.30;99.90;;;;;;5090552;28;20176;-57
2023/05/16 02:44:13;;;;;;;0.15;0.15;;;12.30;99.90;;;;;;5090082;28;20281;-57
2023/05/16 02:46:38;;;;;;;0.00;0.00;;;12.30;99.90;;;;;;5090077;28;20177;-57
2023/05/16 02:49:04;;;;;;;0.25;0.17;;;12.30;99.90;;;;;;5090642;28;20172;-57
2023/05/16 02:51:30;;;;;;;0.55;0.55;;;12.30;99.90;;;;;;5090978;28;20180;-57
2023/05/16 02:53:55;;;;;;;0.30;0.30;;;12.30;99.90;;;;;;5089963;28;20208;-58
2023/05/16 02:56:21;;;;;;;0.38;0.38;;;12.30;99.90;;;;;;5088848;28;20180;-57
2023/05/16 02:58:48;;;;;;;0.00;0.00;;;12.30;99.90;;;;;;5090526;28;20504;-57
2023/05/16 03:01:15;;;;;;;0.00;0.00;;;12.40;99.90;;;;;;5090131;28;20180;-57
2023/05/16 03:03:41;;;;;;;0.32;0.32;;;12.40;99.90;;;;;;5089603;28;20757;-57
2023/05/16 03:06:06;;;;;;;0.00;0.00;;;12.40;99.90;;;;;;5089894;28;20259;-57
2023/05/16 03:08:32;;;;;;;0.52;0.52;;;12.40;99.90;;;;;;5089336;28;20549;-57
2023/05/16 03:10:58;;;;;;;0.00;0.00;;;12.40;99.90;;;;;;5090547;28;20176;-58
2023/05/16 03:13:23;;;;;;;0.25;0.25;;;12.40;99.90;;;;;;5090113;28;20262;-57
2023/05/16 03:15:49;;;;;;;0.43;0.43;;;12.40;99.90;;;;;;5090077;28;20187;-57
2023/05/16 03:18:15;;;;;;;0.28;0.17;;;12.40;99.90;;;;;;5090044;28;20180;-58
2023/05/16 03:20:40;;;;;;;0.10;0.10;;;12.40;99.90;;;;;;5089586;28;20259;-57
2023/05/16 03:23:07;;;;;;;0.00;0.00;;;12.40;99.90;;;;;;5089816;28;20216;-57
2023/05/16 03:25:36;;;;;;;0.10;0.10;;;12.50;99.90;;;;;;5090263;28;20234;-57
2023/05/16 03:28:02;;;;;;;0.13;0.13;;;12.50;99.90;;;;;;5089440;28;20184;-57
2023/05/16 03:30:28;;;;;;;0.28;0.28;;;12.50;99.90;;;;;;5088135;28;20192;-57
2023/05/16 03:32:54;;;;;;;0.00;0.00;;;12.50;99.90;;;;;;5090030;28;20203;-57
2023/05/16 03:35:20;;;;;;;0.57;0.45;;;12.60;99.90;;;;;;5090229;28;20199;-57
2023/05/16 03:37:45;;;;;;;0.30;0.30;;;12.50;99.90;;;;;;5089122;28;20599;-57
2023/05/16 03:40:11;;;;;;;0.03;0.03;;;12.50;99.90;;;;;;5089760;28;20603;-57
2023/05/16 03:42:37;;;;;;;0.10;0.10;;;12.40;99.90;;;;;;5090198;28;20183;-57
2023/05/16 03:45:05;;;;;;;0.65;0.65;;;12.40;99.90;;;;;;5090346;28;20184;-57
2023/05/16 03:47:31;;;;;;;0.10;0.10;;;12.40;99.90;;;;;;5090609;28;20181;-57
2023/05/16 03:49:56;;;;;;;0.05;0.05;;;12.30;99.90;;;;;;5090446;28;20267;-57
2023/05/16 03:52:22;;;;;;;0.10;0.10;;;12.30;99.90;;;;;;5090578;28;20649;-58
2023/05/16 03:54:48;;;;;;;0.00;0.00;;;12.30;99.90;;;;;;5090260;28;20192;-57
2023/05/16 03:57:13;;;;;;;0.57;0.57;;;12.30;99.90;;;;;;5089746;28;20188;-58
2023/05/16 03:59:39;;;;;;;0.20;0.20;;;12.30;99.90;;;;;;5089880;28;20188;-57
2023/05/16 04:02:05;;;;;;;0.10;0.10;;;12.30;99.90;;;;;;5089917;28;20267;-58
2023/05/16 04:04:30;;;;;;;0.10;0.10;;;12.30;99.90;;;;;;5089915;28;20307;-57
2023/05/16 04:06:56;;;;;;;0.10;0.10;;;12.30;99.90;;;;;;5089550;28;20267;-57
2023/05/16 04:09:21;;;;;;;0.35;0.35;;;12.30;99.90;;;;;;5093558;28;20180;-57
2023/05/16 04:11:47;;;;;;;0.08;0.08;;;12.30;99.90;;;;;;5094298;28;20168;-57
2023/05/16 04:14:14;;;;;;;0.20;0.20;;;12.30;99.90;;;;;;5093638;28;20184;-57
2023/05/16 04:16:40;;;;;;;0.38;0.38;;;12.30;99.90;;;;;;5093770;28;20176;-57
2023/05/16 04:19:06;;;;;;;0.00;0.00;;;12.30;99.90;;;;;;5093737;28;20176;-57
2023/05/16 04:21:32;;;;;;;0.00;0.00;;;12.40;99.90;;;;;;5093813;28;20592;-57
2023/05/16 04:23:57;;;;;;;0.52;0.52;;;12.40;99.90;;;;;;5093648;28;20306;-57
2023/05/16 04:26:23;;;;;;;0.15;0.15;;;12.40;99.90;;;;;;5094007;28;20172;-57
2023/05/16 04:28:49;;;;;;;0.30;0.30;;;12.40;99.90;;;;;;5093539;28;20176;-58
2023/05/16 04:31:15;;;;;;;0.10;0.10;;;12.40;99.90;;;;;;5093869;28;20275;-57
2023/05/16 04:33:41;;;;;;;0.40;0.40;;;12.40;99.90;;;;;;5093595;28;20176;-57
2023/05/16 04:36:06;;;;;;;0.00;0.00;;;12.40;99.90;;;;;;5093214;28;20642;-57
2023/05/16 04:38:32;;;;;;;0.00;0.00;;;12.40;99.90;;;;;;5092129;28;20183;-58
2023/05/16 04:40:58;;;;;;;0.08;0.08;;;12.50;99.90;;;;;;5093265;28;20179;-57
2023/05/16 04:43:23;;;;;;;0.00;0.00;;;12.50;99.90;;;;;;5093284;28;20269;-57
2023/05/16 04:45:49;;;;;;;0.05;0.05;;;12.50;99.90;;;;;;5092974;28;20176;-57
2023/05/16 04:48:15;;;;;;;0.10;0.10;;;12.50;99.90;;;;;;5093249;28;20180;-57
2023/05/16 04:50:40;;;;;;;0.70;0.70;;;12.50;99.90;;;;;;5093197;28;20607;-57
2023/05/16 04:53:06;;;;;;;0.47;0.32;;;12.50;99.90;;;;;;5093003;28;20226;-57
2023/05/16 04:55:32;;;;;;;1.10;0.85;;;12.50;99.90;;;;;;5081056;28;20187;-57
2023/05/16 04:57:57;;;;;;;0.47;0.47;;;12.60;99.90;;;;;;5088472;28;20181;-57
2023/05/16 05:00:23;;;;;;;0.13;0.13;;;12.50;99.90;;;;;;5073175;28;20177;-57
2023/05/16 05:02:49;;;;;;;0.10;0.10;;;12.50;99.90;;;;;;5072669;28;20209;-57
2023/05/16 05:05:14;;;;;;;0.08;0.08;;;12.50;99.90;;;;;;5072900;28;20259;-58
2023/05/16 05:07:40;;;;;;;0.10;0.10;;;12.50;99.90;;;;;;5073031;28;20204;-57
2023/05/16 05:10:06;;;;;;;0.30;0.30;;;12.50;99.90;;;;;;5072707;28;20177;-58
2023/05/16 05:12:32;;;;;;;0.30;0.30;;;12.50;99.90;;;;;;5072927;28;20161;-57
2023/05/16 05:14:58;;;;;;;0.00;0.00;;;12.50;99.90;;;;;;5072701;28;20237;-57
2023/05/16 05:17:23;;;;;;;0.00;0.00;;;12.50;99.90;;;;;;5072851;28;20311;-57
2023/05/16 05:19:49;;;;;;;0.10;0.10;;;12.60;99.90;;;;;;5071603;28;20179;-57
2023/05/16 05:22:15;;;;;;;0.20;0.20;;;12.60;99.90;;;;;;5072610;28;20184;-57
2023/05/16 05:24:41;;;;;;;0.40;0.40;;;12.60;99.90;;;;;;5072298;28;20235;-57
2023/05/16 05:27:06;;;;;;;0.20;0.20;;;12.60;99.90;;;;;;5072094;28;20180;-57
2023/05/16 05:29:32;;;;;;;0.25;0.25;;;12.70;99.90;;;;;;5072511;28;20177;-57
2023/05/16 05:31:57;;;;;;;0.00;0.00;;;12.70;99.90;;;;;;5072257;28;20173;-57
2023/05/16 05:34:23;;;;;;;0.20;0.20;;;12.70;99.90;;;;;;5072329;28;20172;-57
2023/05/16 05:36:48;;;;;;;0.00;0.00;;;12.70;99.90;;;;;;5071931;28;20638;-58
2023/05/16 05:39:14;;;;;;;0.08;0.08;;;12.80;99.90;;;;;;5080310;28;20180;-57
2023/05/16 05:41:39;;;;;;;0.30;0.30;;;12.80;99.90;;;;;;5092415;28;20168;-57
2023/05/16 05:44:05;;;;;;;0.00;0.00;;;12.90;99.90;;;;;;5092108;28;20307;-57
2023/05/16 05:46:32;;;;;;;0.00;0.00;;;12.90;99.90;;;;;;5092258;28;20251;-57
2023/05/16 05:48:58;;;;;;;0.08;0.08;;;12.90;99.90;;;;;;5092119;28;20228;-58
2023/05/16 05:51:24;;;;;;;0.00;0.00;;;13.00;99.90;;;;;;5092320;28;20534;-57
2023/05/16 05:53:50;;;;;;;0.28;0.28;;;13.00;99.90;;;;;;5092078;28;20655;-57
2023/05/16 05:56:16;;;;;;;0.00;0.00;;;13.00;99.90;;;;;;5071829;28;20188;-57
2023/05/16 05:58:42;;;;;;;0.08;0.08;;;13.00;99.90;;;;;;5071784;28;20226;-57
2023/05/16 06:01:10;;;;;;;0.35;0.35;;;13.00;99.90;;;;;;5071424;28;20644;-57
2023/05/16 06:03:35;;;;;;;0.10;0.10;;;13.00;99.90;;;;;;5071482;28;20217;-57
2023/05/16 06:06:01;;;;;;;0.00;0.00;;;13.00;99.90;;;;;;5071465;28;20179;-57
2023/05/16 06:08:26;;;;;;;0.00;0.00;;;12.90;99.90;;;;;;5071443;28;20180;-57
2023/05/16 06:10:52;;;;;;;0.03;0.03;;;12.90;99.90;;;;;;5071466;28;20177;-57
2023/05/16 06:13:17;;;;;;;0.00;0.00;;;12.90;99.90;;;;;;5071530;28;20535;-57
2023/05/16 06:15:43;;;;;;;0.00;0.00;;;12.80;99.90;;;;;;5071472;28;20165;-57
2023/05/16 06:18:08;;;;;;;0.00;0.00;;;12.80;99.90;;;;;;5071316;28;20181;-57
2023/05/16 06:20:34;;;;;;;0.20;0.20;;;12.80;99.90;;;;;;5071604;28;20171;-57
2023/05/16 06:23:00;;;;;;;0.30;0.30;;;12.80;99.90;;;;;;5071213;28;20251;-57
2023/05/16 06:25:25;;;;;;;0.00;0.00;;;12.70;99.90;;;;;;5071548;28;20629;-57
2023/05/16 06:27:51;;;;;;;0.47;0.43;;;12.70;99.90;;;;;;5071780;28;20246;-57
2023/05/16 06:30:16;;;;;;;0.08;0.08;;;12.60;99.90;;;;;;5071356;28;20222;-57
2023/05/16 06:32:42;;;;;;;0.00;0.00;;;12.60;99.90;;;;;;5071405;28;20177;-57
2023/05/16 06:35:08;;;;;;;0.00;0.00;;;12.50;99.90;;;;;;5071101;28;20218;-57
2023/05/16 06:37:34;;;;;;;0.08;0.08;;;12.50;99.90;;;;;;5071295;28;20642;-57
2023/05/16 06:39:59;;;;;;;0.00;0.00;;;12.50;99.90;;;;;;5085707;28;20184;-57
2023/05/16 06:42:25;;;;;;;0.10;0.10;;;12.50;99.90;;;;;;5091329;28;20172;-57
2023/05/16 06:44:51;;;;;;;1.08;1.08;;;12.50;99.90;;;;;;5091334;28;20176;-58
2023/05/16 06:47:16;;;;;;;0.08;0.08;;;12.40;99.90;;;;;;5091443;28;20176;-57
2023/05/16 06:49:42;;;;;;;0.10;0.10;;;12.40;99.90;;;;;;5091356;28;20187;-57
2023/05/16 06:52:08;;;;;;;0.00;0.00;;;12.40;99.90;;;;;;5091008;28;20188;-57
2023/05/16 06:54:33;;;;;;;0.00;0.00;;;12.50;99.90;;;;;;5091152;28;20637;-57
2023/05/16 06:56:59;;;;;;;0.50;0.50;;;12.50;99.90;;;;;;5091134;28;20176;-57
2023/05/16 06:59:25;;;;;;;0.00;0.00;;;12.50;99.90;;;;;;5091286;28;20176;-57
2023/05/16 07:01:50;;;;;;;0.00;0.00;;;12.60;99.90;;;;;;5090971;28;20172;-58
2023/05/16 07:04:16;;;;;;;0.00;0.00;;;12.60;99.90;;;;;;5090985;28;20218;-57
2023/05/16 07:06:42;;;;;;;0.00;0.00;;;12.70;99.90;;;;;;5091368;28;20179;-57
2023/05/16 07:09:07;;;;;;;0.70;0.70;;;12.70;99.90;;;;;;5091303;28;20195;-57
2023/05/16 07:11:33;;;;;;;0.00;0.00;;;12.80;99.90;;;;;;5091490;28;20164;-57
2023/05/16 07:13:58;;;;;;;0.40;0.40;;;12.90;99.90;;;;;;5091227;28;20176;-57
2023/05/16 07:16:27;;;;;;;0.17;0.17;;;12.90;99.90;;;;;;5091333;28;20615;-57
2023/05/16 07:18:53;;;;;;;0.75;0.50;;;13.00;99.90;;;;;;5091140;28;20651;-57
2023/05/16 07:21:18;;;;;;;0.00;0.00;;;13.10;99.90;;;;;;5091490;28;20203;-57
2023/05/16 07:23:44;;;;;;;0.32;0.32;;;13.10;99.90;;;;;;5091128;28;20222;-57
2023/05/16 07:26:10;;;;;;;0.00;0.00;;;13.20;99.90;;;;;;5091185;28;20586;-57
2023/05/16 07:28:35;;;;;;;0.10;0.10;;;13.30;99.90;;;;;;5091430;28;20195;-57
2023/05/16 07:31:01;;;;;;;0.00;0.00;;;13.30;99.90;;;;;;5091212;28;20168;-58
2023/05/16 07:33:26;;;;;;;0.10;0.10;;;13.40;99.90;;;;;;5091226;28;20848;-57
2023/05/16 07:35:53;;;;;;;0.05;0.05;;;13.50;99.90;;;;;;5091121;28;20204;-57
2023/05/16 07:38:20;;;;;;;0.00;0.00;;;13.60;99.90;;;;;;5091086;28;20202;-57
2023/05/16 07:40:45;;;;;;;0.08;0.08;;;13.80;99.90;;;;;;5091291;28;20180;-57
2023/05/16 07:43:11;;;;;;;0.10;0.10;;;13.90;99.90;;;;;;5093357;28;20290;-57
2023/05/16 07:45:37;;;;;;;0.00;0.00;;;14.00;99.90;;;;;;5095163;28;20194;-58
2023/05/16 07:48:02;;;;;;;0.10;0.10;;;14.10;99.90;;;;;;5094959;28;20535;-57
2023/05/16 07:50:28;;;;;;;0.00;0.00;;;14.20;99.90;;;;;;5094935;28;20722;-57
2023/05/16 07:52:53;;;;;;;0.20;0.20;;;14.40;99.90;;;;;;5094889;28;20602;-58
2023/05/16 07:55:20;;;;;;;0.00;0.00;;;14.50;99.90;;;;;;5094838;28;20240;-57
2023/05/16 07:57:47;;;;;;;0.20;0.20;;;14.70;99.90;;;;;;5094824;28;20176;-57
2023/05/16 08:00:13;;;;;;;0.00;0.00;;;14.80;99.90;;;;;;5094688;28;20277;-58
2023/05/16 08:02:39;;;;;;;0.20;0.20;;;14.90;99.90;;;;;;5094599;28;20229;-57
2023/05/16 08:05:06;;;;;;;0.10;0.10;;;14.90;99.90;;;;;;5094611;28;20184;-57
2023/05/16 08:07:32;;;;;;;0.00;0.00;;;15.00;99.90;;;;;;5094631;28;20180;-57
2023/05/16 08:09:58;;;;;;;0.00;0.00;;;15.00;99.90;;;;;;5094529;28;20191;-58
2023/05/16 08:12:23;;;;;;;0.00;0.00;;;15.10;99.90;;;;;;5094634;28;20172;-57
2023/05/16 08:14:49;;;;;;;0.00;0.00;;;15.20;99.90;;;;;;5094184;28;20304;-58
2023/05/16 08:17:15;;;;;;;0.10;0.10;;;15.10;99.90;;;;;;5094362;28;20661;-58
2023/05/16 08:19:40;;;;;;;0.00;0.00;;;15.10;99.90;;;;;;5094387;28;20176;-57
2023/05/16 08:22:08;;;;;;;0.35;0.35;;;15.10;99.90;;;;;;5094187;28;20198;-57
2023/05/16 08:24:33;;;;;;;0.00;0.00;;;15.20;99.90;;;;;;5094148;28;20263;-57
2023/05/16 08:26:59;;;;;;;0.05;0.05;;;15.20;99.90;;;;;;5094128;28;20352;-57
2023/05/16 08:29:25;;;;;;;0.00;0.00;;;15.20;99.90;;;;;;5094284;28;20179;-57
2023/05/16 08:31:51;;;;;;;0.00;0.00;;;15.20;99.90;;;;;;5093989;28;20192;-57
2023/05/16 08:34:16;;;;;;;0.00;0.00;;;15.20;99.90;;;;;;5094009;28;20212;-57
2023/05/16 08:36:42;;;;;;;0.40;0.40;;;15.20;99.90;;;;;;5094088;28;20194;-57
2023/05/16 08:39:10;;;;;;;0.22;0.22;;;15.20;99.90;;;;;;5093701;28;20643;-57
2023/05/16 08:41:36;;;;;;;0.00;0.00;;;15.10;99.90;;;;;;5094189;28;20180;-57
2023/05/16 08:44:01;;;;;;;0.30;0.30;;;15.00;99.90;;;;;;5093733;28;20326;-58
2023/05/16 08:46:28;;;;;;;0.00;0.00;;;14.90;99.90;;;;;;5092679;28;20180;-57
2023/05/16 08:48:58;;;;;;;0.00;0.00;;;14.90;99.90;;;;;;5093742;28;20238;-58
2023/05/16 08:51:25;;;;;;;0.00;0.00;;;14.80;99.90;;;;;;5093910;28;20168;-57
2023/05/16 08:54:02;;;;;;;0.00;0.00;;;14.70;99.90;;;;;;5092323;28;20188;-57
2023/05/16 08:56:28;;;;;;;0.00;0.00;;;14.70;99.90;;;;;;5073461;28;20165;-57
2023/05/16 08:58:54;;;;;;;0.00;0.00;;;14.70;99.90;;;;;;5073404;28;20181;-57
2023/05/16 09:01:21;;;;;;;0.10;0.10;;;14.70;99.90;;;;;;5072084;28;20600;-57
2023/05/16 09:03:48;;;;;;;0.00;0.00;;;14.70;99.90;;;;;;5073230;28;20267;-57
2023/05/16 09:06:15;;;;;;;0.00;0.00;;;14.60;99.90;;;;;;5073228;28;20180;-57
2023/05/16 09:08:40;;;;;;;0.00;0.00;;;14.60;99.90;;;;;;5073313;28;20181;-57
2023/05/16 09:11:07;;;;;;;0.00;0.00;;;14.50;99.90;;;;;;5072986;28;20184;-57
2023/05/16 09:13:32;;;;;;;0.00;0.00;;;14.50;99.90;;;;;;5073226;28;20173;-57
2023/05/16 09:16:12;;;;;;;0.00;0.00;;;14.60;99.90;;;;;;5072991;28;20690;-57
2023/05/16 09:18:39;;;;;;;0.00;0.00;;;14.70;99.90;;;;;;5073105;28;20624;-57
2023/05/16 09:21:06;;;;;;;0.00;0.00;;;14.80;99.90;;;;;;5072924;28;20255;-57
2023/05/16 09:23:32;;;;;;;0.00;0.00;;;14.80;99.90;;;;;;5072815;28;20223;-57
2023/05/16 09:25:58;;;;;;;0.03;0.03;;;15.00;99.90;;;;;;5072850;28;20181;-57
2023/05/16 09:28:25;;;;;;;0.00;0.00;;;15.10;99.90;;;;;;5072966;28;20175;-57
2023/05/16 09:30:52;;;;;;;0.00;0.00;;;15.20;99.90;;;;;;5072643;28;20628;-57
2023/05/16 09:33:18;;;;;;;0.10;0.10;;;15.20;99.90;;;;;;5072747;28;20744;-57
2023/05/16 09:35:43;;;;;;;0.10;0.10;;;15.30;99.90;;;;;;5072761;28;20180;-57
2023/05/16 09:38:16;;;;;;;0.10;0.10;;;15.50;99.90;;;;;;5072362;28;20229;-57
2023/05/16 09:40:42;;;;;;;0.00;0.00;;;15.80;99.90;;;;;;5072559;28;20231;-57
2023/05/16 09:43:08;;;;;;;0.00;0.00;;;15.90;99.90;;;;;;5072277;28;20220;-58
2023/05/16 09:45:35;;;;;;;0.00;0.00;;;16.00;99.90;;;;;;5072587;28;20691;-57
2023/05/16 09:48:06;;;;;;;0.00;0.00;;;16.00;99.90;;;;;;5072434;28;20199;-57
2023/05/16 09:50:33;;;;;;;0.00;0.00;;;15.90;99.90;;;;;;5072461;28;20173;-57
2023/05/16 09:52:59;;;;;;;0.00;0.00;;;15.80;99.90;;;;;;5072318;28;20168;-57
2023/05/16 09:55:25;;;;;;;0.00;0.00;;;15.50;99.90;;;;;;5074170;28;20195;-57
2023/05/16 09:57:50;;;;;;;0.00;0.00;;;15.10;99.90;;;;;;5072061;28;20169;-57
2023/05/16 10:00:17;;;;;;;0.20;0.20;;;14.90;99.90;;;;;;5072237;28;20628;-57
2023/05/16 10:02:43;;;;;;;0.22;0.22;;;14.80;99.90;;;;;;5072162;28;20176;-57
2023/05/16 10:05:08;;;;;;;0.00;0.00;;;14.60;99.90;;;;;;5071483;28;20185;-57
2023/05/16 10:07:34;;;;;;;0.00;0.00;;;14.40;99.90;;;;;;5072118;28;20758;-57
2023/05/16 10:10:09;;;;;;;0.00;0.00;;;14.20;99.90;;;;;;5072075;28;20176;-57
2023/05/16 10:12:37;;;;;;;0.00;0.00;;;14.20;99.90;;;;;;5072107;28;20255;-57
2023/05/16 10:15:04;;;;;;;0.00;0.00;;;14.10;99.90;;;;;;5071916;28;20267;-57
2023/05/16 10:17:32;;;;;;;0.00;0.00;;;14.10;99.90;;;;;;5071859;28;20172;-57
2023/05/16 10:20:04;;;;;;;0.00;0.00;;;14.30;99.90;;;;;;5071812;28;20219;-57
2023/05/16 10:22:34;;;;;;;0.00;0.00;;;14.40;99.90;;;;;;5071836;28;20187;-57
2023/05/16 10:25:03;;;;;;;0.00;0.00;;;14.60;99.90;;;;;;5071662;28;20220;-57
2023/05/16 10:27:29;;;;;;;0.00;0.00;;;14.80;99.90;;;;;;5071755;28;20176;-57
2023/05/16 10:29:57;;;;;;;0.00;0.00;;;15.10;99.90;;;;;;5071763;28;20170;-57
2023/05/16 10:32:24;;;;;;;0.00;0.00;;;15.20;99.90;;;;;;5071715;28;20183;-58
2023/05/16 10:34:49;;;;;;;0.00;0.00;;;15.30;99.90;;;;;;5071340;28;20227;-57
2023/05/16 10:37:15;;;;;;;0.00;0.00;;;15.20;99.90;;;;;;5071628;28;20184;-57
2023/05/16 10:39:41;;;;;;;0.00;0.00;;;15.10;99.90;;;;;;5083524;28;20168;-57
2023/05/16 10:42:07;;;;;;;0.00;0.00;;;14.90;99.90;;;;;;5091561;28;20256;-57
2023/05/16 10:44:33;;;;;;;0.13;0.13;;;14.80;99.90;;;;;;5091603;28;20674;-57
2023/05/16 10:46:59;;;;;;;0.00;0.00;;;14.60;99.90;;;;;;5091601;28;20527;-57
2023/05/16 10:49:26;;;;;;;0.20;0.20;;;14.50;99.90;;;;;;5091803;28;20180;-57
2023/05/16 10:52:12;;;;;;;0.00;0.00;;;14.40;99.90;;;;;;5091637;28;20309;-57
2023/05/16 10:54:42;;;;;;;0.00;0.00;;;14.30;99.90;;;;;;5091652;28;20168;-57
2023/05/16 10:57:16;;;;;;;0.00;0.00;;;14.40;99.90;;;;;;5091505;28;20183;-57
2023/05/16 10:59:43;;;;;;;0.05;0.05;;;14.50;99.90;;;;;;5091726;28;20209;-57
2023/05/16 11:02:23;;;;;;;0.00;0.00;;;14.60;99.90;;;;;;5091283;28;20184;-57
2023/05/16 11:04:53;;;;;;;0.00;0.00;;;14.60;99.90;;;;;;5091413;28;20223;-57
2023/05/16 11:07:22;;;;;;;0.00;0.00;;;14.60;99.90;;;;;;5091566;28;20587;-57
2023/05/16 11:10:04;;;;;;;0.00;0.00;;;14.60;99.90;;;;;;5091398;28;20203;-57
2023/05/16 11:12:46;;;;;;;0.00;0.00;;;14.60;99.90;;;;;;5091258;28;20532;-57
2023/05/16 11:15:30;;;;;;;0.22;0.22;;;14.50;99.90;;;;;;5091315;28;20179;-57
2023/05/16 11:18:14;;;;;;;0.00;0.00;;;14.40;99.90;;;;;;5093303;28;20792;-57
2023/05/16 11:20:40;;;;;;;0.00;0.00;;;14.30;99.90;;;;;;5095598;28;20222;-57
2023/05/16 11:23:17;;;;;;;0.00;0.00;;;14.20;99.90;;;;;;5095377;28;20208;-57
2023/05/16 11:25:49;;;;;;;0.00;0.00;;;14.10;99.90;;;;;;5095308;28;20219;-57
2023/05/16 11:28:16;;;;;;;0.00;0.00;;;13.90;99.90;;;;;;5095431;28;20168;-57
2023/05/16 11:30:58;;;;;;;0.00;0.00;;;13.90;99.90;;;;;;5095372;28;20168;-57
2023/05/16 11:33:24;;;;;;;0.00;0.00;;;13.80;99.90;;;;;;5095369;28;20187;-57
2023/05/16 11:36:19;;;;;;;0.00;0.00;;;13.80;99.90;;;;;;5095127;28;20180;-57
2023/05/16 11:38:44;;;;;;;0.10;0.10;;;13.70;99.90;;;;;;5081861;28;20180;-57
2023/05/16 11:41:11;;;;;;;0.00;0.00;;;13.70;99.90;;;;;;5094986;28;20234;-57
2023/05/16 11:43:45;;;;;;;0.30;0.30;;;13.60;99.90;;;;;;5095115;28;20237;-57
2023/05/16 11:46:12;;;;;;;0.00;0.00;;;13.60;99.90;;;;;;5093846;28;20164;-57
2023/05/16 11:48:38;;;;;;;0.00;0.00;;;13.60;99.90;;;;;;5095066;28;20244;-57
2023/05/16 11:51:04;;;;;;;0.08;0.08;;;13.50;99.90;;;;;;5094887;28;20176;-57
2023/05/16 11:53:29;;;;;;;0.00;0.00;;;13.40;99.90;;;;;;5094984;28;20173;-57
2023/05/16 11:55:55;;;;;;;0.00;0.00;;;13.40;99.90;;;;;;5079330;28;20666;-58
2023/05/16 11:58:21;;;;;;;0.00;0.00;;;13.30;99.90;;;;;;5074675;28;20640;-57
2023/05/16 12:00:48;;;;;;;0.00;0.00;;;13.30;99.90;;;;;;5074581;28;20259;-57
2023/05/16 12:03:14;;;;;;;0.00;0.00;;;13.20;99.90;;;;;;5074369;28;20217;-57
2023/05/16 12:05:50;;;;;;;0.00;0.00;;;13.20;99.90;;;;;;5074601;28;20180;-57
2023/05/16 12:08:16;;;;;;;0.00;0.00;;;13.20;99.90;;;;;;5074393;28;20195;-57
2023/05/16 12:10:41;;;;;;;0.05;0.05;;;13.20;99.90;;;;;;5074467;28;20546;-57
2023/05/16 12:13:07;;;;;;;0.00;0.00;;;13.30;99.90;;;;;;5074118;28;20184;-57
2023/05/16 12:15:33;;;;;;;0.00;0.00;;;13.40;99.90;;;;;;5074343;28;20181;-57
2023/05/16 12:17:59;;;;;;;0.00;0.00;;;13.40;99.90;;;;;;5074101;28;20185;-57
2023/05/16 12:20:25;;;;;;;0.00;0.00;;;13.60;99.90;;;;;;5074347;28;20176;-57
2023/05/16 12:22:51;;;;;;;0.00;0.00;;;13.80;99.90;;;;;;5089692;28;20181;-57
2023/05/16 12:25:24;;;;;;;0.00;0.00;;;14.00;99.90;;;;;;5073838;28;20271;-57
2023/05/16 12:27:56;;;;;;;0.00;0.00;;;14.10;99.90;;;;;;5073539;28;20183;-57
2023/05/16 12:30:26;;;;;;;0.00;0.00;;;14.30;99.90;;;;;;5074142;28;20180;-57
2023/05/16 12:33:03;;;;;;;0.00;0.00;;;14.40;99.90;;;;;;5073972;28;20173;-57
2023/05/16 12:35:30;;;;;;;0.00;0.00;;;14.50;99.90;;;;;;5073983;28;20184;-57
2023/05/16 12:37:56;;;;;;;0.00;0.00;;;14.60;99.90;;;;;;5073791;28;20271;-57
2023/05/16 12:40:22;;;;;;;0.00;0.00;;;14.60;99.90;;;;;;5091596;28;20713;-57
2023/05/16 12:42:50;;;;;;;0.00;0.00;;;14.60;99.90;;;;;;5093763;28;20233;-58
2023/05/16 12:45:16;;;;;;;0.00;0.00;;;14.60;99.90;;;;;;5093947;28;20180;-57
2023/05/16 12:47:42;;;;;;;0.00;0.00;;;14.60;99.90;;;;;;5093942;28;20172;-58